• Join FlightAware (Why Join?)
  • Login
  • US Flag 
03:06AM EDT


 

Airport Tracker/Info


-or-


 

Live Flight TrackerFlight Track Log ✈ EJA829P ✈ 14-Nov-2013 ✈ KSAV - KCLT

Flight Track Log - Related Links

Times and Time Zones

All times are in EST time to prevent confusion due to time zone crossing. See the EJA829P flight status page for this flight to view local times or setup timezone preferences in your user account.

Time Position Orientation Groundspeed Altitude Reporting Facility
EST Latitude Longitude Course Direction KTS MPH feet Rate Location/Type
03:38PM 32.2486 -81.1583 16° North 233 268 3,000  Level Jacksonville Center
03:39PM 32.3108 -81.1375 16° North 260 299 4,100 1,500 Climbing Jacksonville Center
03:40PM 32.3817 -81.1117 17° North 265 305 6,100 2,400 Climbing Jacksonville Center
03:41PM 32.4500 -81.0856 18° North 270 311 9,000 2,820 Climbing Jacksonville Center
03:42PM 32.6926 -81.1571 16° North  Level Estimated
03:42PM 32.5269 -81.0569 17° North 280 322 11,800  Level Jacksonville Center
03:43PM 32.5972 -81.0111 29° Northeast 285 328 14,700 1,560 Climbing Jacksonville Center
03:44PM 32.6778 -80.9528 31° Northeast 304 350 15,000 120 Climbing Jacksonville Center
03:45PM 32.7622 -80.8892 32° Northeast 334 384 15,000  Level Jacksonville Center
03:46PM 32.8447 -80.8256 33° Northeast 347 399 15,000  Level Jacksonville Center
03:47PM 32.9314 -80.7642 31° Northeast 352 405 15,000  Level Jacksonville Center
03:48PM 33.0139 -80.7003 33° Northeast 352 405 15,000  Level Jacksonville Center
03:49PM 33.0964 -80.6386 32° Northeast 352 405 15,000  Level Jacksonville Center
03:50PM 33.1808 -80.5769 31° Northeast 352 405 15,000  Level Jacksonville Center
03:51PM 33.2650 -80.5128 33° Northeast 352 405 15,000  Level Jacksonville Center
03:52PM 33.3475 -80.4508 32° Northeast 352 405 15,000  Level Jacksonville Center
03:53PM 33.4317 -80.3889 32° Northeast 352 405 15,000  Level Jacksonville Center
03:54PM 33.5139 -80.3267 32° Northeast 352 405 15,000  Level Jacksonville Center
03:55PM 33.6022 -80.2592 32° Northeast 352 405 15,000  Level Jacksonville Center
03:56PM 33.6844 -80.1969 32° Northeast 347 399 15,000  Level Jacksonville Center
03:57PM 33.7644 -80.1344 33° Northeast 347 399 15,000  Level Jacksonville Center
03:58PM 33.8467 -80.0719 32° Northeast 347 399 15,000  Level Jacksonville Center
03:59PM 33.9286 -80.0092 32° Northeast 342 394 15,000  Level Jacksonville Center
04:00PM 34.0086 -79.9489 32° Northeast 342 394 15,000  Level Jacksonville Center
04:01PM 34.0953 -79.9083 21° North 333 383 15,000  Level Jacksonville Center
04:02PM 34.1761 -79.9683 328° Northwest 294 338 15,000  Level Jacksonville Center
04:03PM 34.2544 -80.0261 329° Northwest 309 356 15,000  Level Jacksonville Center
04:04PM 34.3372 -80.0811 331° Northwest 322 371 15,000  Level Jacksonville Center
04:05PM 34.4133 -80.1342 330° Northwest 334 384 15,000  Level Jacksonville Center
04:06PM 34.4939 -80.1919 329° Northwest 334 384 15,000 -900 Level Jacksonville Center
04:08PM 34.6217 -80.2828 330° Northwest 325 374 12,800 -1,500 Descending Atlanta Center
04:09PM 34.6922 -80.3378 327° Northwest 307 353 11,200 -900 Descending Atlanta Center
04:10PM 34.7506 -80.4036 317° Northwest 285 328 11,000 -120 Descending Atlanta Center
04:11PM 34.8047 -80.4719 314° West 286 329 11,000  Level Atlanta Center
04:12PM 34.8608 -80.5406 315° West 287 330 11,000  Level Atlanta Center
04:13PM 34.9194 -80.6164 313° West 290 334 11,000  Level Atlanta Center
04:14PM 34.9797 -80.6875 316° Northwest 288 331 11,000 -360 Level Atlanta Center
04:15PM 35.0339 -80.7589 313° West 288 331 10,300 -1,020 Descending Atlanta Center
04:16PM 35.1019 -80.8044 331° Northwest 286 329 9,000 -660 Descending Atlanta Center
04:17PM 35.1778 -80.8369 341° North 290 334 9,000 -660 Level Atlanta Center
04:18PM 35.2658 -80.8489 354° North 295 339 7,700 -1,680 Descending Atlanta Center
04:19PM 35.3425 -80.8308 11° North 283 326 5,600 -1,860 Descending Atlanta Center
04:20PM 35.3956 -80.8617 335° Northwest 227 261 4,000 -1,320 Descending Atlanta Center
04:21PM 35.3781 -80.9158 248° West 150 173 3,000 -720 Descending Atlanta Center
04:22PM 35.3328 -80.9381 202° Southwest 164 189 2,600 -480 Descending Atlanta Center
04:23PM 35.2892 -80.9447 187° South 144 166 2,000 -600 Descending Atlanta Center
04:24PM 35.2578 -80.9433 178° South 120 138 1,400 -660 Descending Atlanta Center